Time;durP1;ratioP1;P1;durP2;ratioP2;P2;SDS_P1;SDS_P2;PMS_P1;PMS_P2;Temp;Humidity;BMP_temperature;BMP_pressure;BME280_temperature;BME280_humidity;BME280_pressure;Samples;Min_cycle;Max_cycle;Signal;HPM_P1;HPM_P2
2023/06/21 00:00:16;;;;;;;17.05;14.23;;;21.30;99.90;;;;;;5095183;28;20640;-83
2023/06/21 00:02:45;;;;;;;18.92;14.90;;;21.30;99.90;;;;;;5078624;28;20292;-81
2023/06/21 00:05:11;;;;;;;18.33;14.38;;;21.30;99.90;;;;;;5076468;28;20174;-85
2023/06/21 00:07:41;;;;;;;19.92;15.27;;;21.30;99.90;;;;;;5076555;28;20188;-80
2023/06/21 00:10:07;;;;;;;18.77;15.57;;;21.30;99.90;;;;;;5105500;28;20184;-80
2023/06/21 00:12:34;;;;;;;18.92;15.57;;;21.30;99.90;;;;;;5115335;27;20181;-80
2023/06/21 00:15:00;;;;;;;19.92;16.58;;;21.20;99.90;;;;;;5098212;28;20276;-80
2023/06/21 00:17:26;;;;;;;24.67;16.10;;;21.20;99.90;;;;;;5094596;28;20359;-80
2023/06/21 00:19:56;;;;;;;23.60;16.45;;;21.20;99.90;;;;;;5076418;28;20537;-80
2023/06/21 00:22:22;;;;;;;23.35;17.10;;;21.20;99.90;;;;;;5096497;28;20162;-80
2023/06/21 00:24:48;;;;;;;20.35;17.23;;;21.10;99.90;;;;;;5114838;28;20170;-80
2023/06/21 00:27:15;;;;;;;22.05;18.08;;;21.10;99.90;;;;;;5113026;28;20195;-81
2023/06/21 00:29:41;;;;;;;24.02;17.85;;;21.10;99.90;;;;;;5104562;28;20272;-80
2023/06/21 00:32:07;;;;;;;25.77;18.92;;;21.10;99.90;;;;;;5090167;28;20194;-80
2023/06/21 00:34:34;;;;;;;20.38;17.58;;;21.00;99.90;;;;;;5075884;28;20269;-81
2023/06/21 00:37:02;;;;;;;22.77;18.17;;;21.00;99.90;;;;;;5092577;28;20255;-80
2023/06/21 00:39:29;;;;;;;23.35;18.63;;;21.00;99.90;;;;;;5097861;28;20260;-82
2023/06/21 00:41:55;;;;;;;23.38;19.42;;;21.00;99.90;;;;;;5094068;28;20301;-81
2023/06/21 00:44:22;;;;;;;23.35;19.33;;;21.00;99.90;;;;;;5088420;28;20539;-80
2023/06/21 00:46:51;;;;;;;22.83;19.52;;;21.00;99.90;;;;;;5104923;27;20172;-80
2023/06/21 00:49:17;;;;;;;25.90;20.58;;;21.00;99.90;;;;;;5098932;27;20269;-80
2023/06/21 00:51:44;;;;;;;27.27;20.20;;;21.00;99.90;;;;;;5093893;27;20265;-80
2023/06/21 00:54:21;;;;;;;23.27;20.33;;;20.90;99.90;;;;;;5095471;28;20193;-80
2023/06/21 00:56:47;;;;;;;27.42;21.02;;;20.90;99.90;;;;;;5100654;28;20201;-80
2023/06/21 00:59:13;;;;;;;29.33;22.10;;;21.00;99.90;;;;;;5107609;28;20199;-80
2023/06/21 01:01:40;;;;;;;24.75;22.00;;;20.90;99.90;;;;;;5117844;27;20317;-80
2023/06/21 01:04:09;;;;;;;28.90;22.63;;;20.90;99.90;;;;;;5105754;28;20189;-80
2023/06/21 01:06:50;;;;;;;31.23;23.05;;;20.90;99.90;;;;;;5105549;28;20199;-80
2023/06/21 01:09:50;;;;;;;33.50;24.45;;;20.90;99.90;;;;;;5104491;27;20628;-80
2023/06/21 01:12:53;;;;;;;32.33;23.75;;;20.90;99.90;;;;;;5089331;28;20236;-80
2023/06/21 01:15:23;;;;;;;31.40;24.45;;;20.90;99.90;;;;;;5096636;28;20272;-80
2023/06/21 01:17:52;;;;;;;30.52;25.67;;;20.90;99.90;;;;;;5108731;28;20209;-80
2023/06/21 01:20:28;;;;;;;31.40;24.80;;;20.90;99.90;;;;;;5118148;27;20184;-79
2023/06/21 01:23:09;;;;;;;31.92;25.88;;;20.90;99.90;;;;;;5092596;28;20192;-79
2023/06/21 01:26:06;;;;;;;35.00;26.17;;;20.90;99.90;;;;;;5091731;28;20174;-79
2023/06/21 01:28:50;;;;;;;33.42;26.55;;;20.90;99.90;;;;;;5091505;28;20237;-79
2023/06/21 01:31:17;;;;;;;32.38;25.77;;;20.90;99.90;;;;;;5091636;28;20597;-79
2023/06/21 01:33:43;;;;;;;33.30;26.27;;;20.90;99.90;;;;;;5092973;28;20220;-79
2023/06/21 01:36:09;;;;;;;33.88;26.20;;;20.80;99.90;;;;;;5103311;28;20189;-79
2023/06/21 01:38:36;;;;;;;33.67;25.60;;;20.90;99.90;;;;;;5111800;28;20188;-79
2023/06/21 01:41:02;;;;;;;33.72;25.45;;;20.90;99.90;;;;;;5113875;28;20228;-79
2023/06/21 01:43:30;;;;;;;31.15;24.75;;;20.90;99.90;;;;;;5113788;28;20173;-79
2023/06/21 01:45:59;;;;;;;33.03;26.67;;;20.90;99.90;;;;;;5113063;28;20185;-79
2023/06/21 01:48:29;;;;;;;32.90;26.48;;;20.90;99.90;;;;;;5112251;28;20176;-80
2023/06/21 01:50:55;;;;;;;32.53;25.45;;;20.90;99.90;;;;;;5111367;28;20283;-82
2023/06/21 01:53:33;;;;;;;33.70;26.35;;;20.90;99.90;;;;;;5096488;28;20176;-82
2023/06/21 01:56:01;;;;;;;33.92;26.27;;;20.90;99.90;;;;;;5112737;28;20663;-81
2023/06/21 01:58:28;;;;;;;34.17;26.13;;;20.80;99.90;;;;;;5093115;28;20313;-80
2023/06/21 02:00:56;;;;;;;33.45;26.02;;;20.80;99.90;;;;;;5111105;28;20181;-80
2023/06/21 02:03:22;;;;;;;35.22;26.08;;;20.80;99.90;;;;;;5104076;28;20177;-81
2023/06/21 02:05:49;;;;;;;33.00;25.63;;;20.80;99.90;;;;;;5105241;28;20194;-82
2023/06/21 02:08:18;;;;;;;33.45;26.52;;;20.80;99.90;;;;;;5097600;28;20243;-82
2023/06/21 02:10:45;;;;;;;32.65;26.63;;;20.80;99.90;;;;;;5099213;28;20182;-82
2023/06/21 02:13:12;;;;;;;39.90;26.77;;;20.80;99.90;;;;;;5093540;28;20698;-79
2023/06/21 02:15:40;;;;;;;33.78;26.80;;;20.80;99.90;;;;;;5100636;28;20649;-81
2023/06/21 02:18:07;;;;;;;33.25;26.20;;;20.70;99.90;;;;;;5094329;28;20200;-82
2023/06/21 02:20:33;;;;;;;34.40;27.60;;;20.80;99.90;;;;;;5110016;28;20331;-82
2023/06/21 02:22:59;;;;;;;37.05;27.45;;;20.70;99.90;;;;;;5081258;28;20679;-82
2023/06/21 02:25:24;;;;;;;34.05;27.65;;;20.70;99.90;;;;;;5087521;28;20285;-82
2023/06/21 02:27:50;;;;;;;36.50;28.60;;;20.70;99.90;;;;;;5090035;28;20182;-81
2023/06/21 02:30:16;;;;;;;38.00;28.98;;;20.70;99.90;;;;;;5090718;28;20208;-82
2023/06/21 02:32:42;;;;;;;39.08;30.60;;;20.70;99.90;;;;;;5085136;28;20607;-82
2023/06/21 02:35:10;;;;;;;39.50;30.90;;;20.70;99.90;;;;;;5090440;28;20193;-81
2023/06/21 02:37:37;;;;;;;42.25;31.60;;;20.60;99.90;;;;;;5073519;28;20224;-81
2023/06/21 02:40:13;;;;;;;44.15;32.78;;;20.70;99.90;;;;;;5089773;28;20246;-84
2023/06/21 02:42:40;;;;;;;42.13;32.92;;;20.60;99.90;;;;;;5093781;28;20185;-81
2023/06/21 02:45:07;;;;;;;45.75;34.53;;;20.70;99.90;;;;;;5103084;28;20186;-82
2023/06/21 02:47:33;;;;;;;43.38;34.08;;;20.60;99.90;;;;;;5091816;28;20534;-82
2023/06/21 02:49:59;;;;;;;45.58;33.17;;;20.60;99.90;;;;;;5094931;28;20546;-81
2023/06/21 02:52:25;;;;;;;43.03;33.33;;;20.60;99.90;;;;;;5105460;28;20190;-81
2023/06/21 02:54:53;;;;;;;46.30;35.97;;;20.60;99.90;;;;;;5104377;28;20659;-82
2023/06/21 02:57:21;;;;;;;51.67;36.13;;;20.60;99.90;;;;;;5108125;28;20363;-82
2023/06/21 02:59:49;;;;;;;47.85;35.00;;;20.60;99.90;;;;;;5082049;28;20747;-81
2023/06/21 03:02:16;;;;;;;47.78;35.13;;;20.50;99.90;;;;;;5102802;28;20177;-82
2023/06/21 03:04:42;;;;;;;44.75;35.13;;;20.50;99.90;;;;;;5095366;28;20274;-81
2023/06/21 03:07:09;;;;;;;45.55;34.25;;;20.50;99.90;;;;;;5095495;28;20174;-82
2023/06/21 03:09:34;;;;;;;52.78;35.78;;;20.50;99.90;;;;;;5111800;28;20606;-81
2023/06/21 03:12:08;;;;;;;44.58;35.75;;;20.40;99.90;;;;;;5097331;28;20272;-83
2023/06/21 03:14:37;;;;;;;45.78;36.13;;;20.40;99.90;;;;;;5106222;28;20193;-81
2023/06/21 03:17:05;;;;;;;48.80;37.20;;;20.40;99.90;;;;;;5104979;27;20208;-82
2023/06/21 03:19:32;;;;;;;48.30;37.22;;;20.40;99.90;;;;;;5093955;28;20277;-81
2023/06/21 03:21:59;;;;;;;49.92;38.92;;;20.40;99.90;;;;;;5102882;28;20185;-82
2023/06/21 03:24:26;;;;;;;53.67;39.22;;;20.40;99.90;;;;;;5096620;27;20485;-81
2023/06/21 03:26:53;;;;;;;55.22;41.50;;;20.40;99.90;;;;;;5080772;28;20543;-81
2023/06/21 03:29:19;;;;;;;55.55;39.55;;;20.40;99.90;;;;;;5093743;28;20277;-81
2023/06/21 03:31:47;;;;;;;52.00;38.72;;;20.40;99.90;;;;;;5094034;28;20657;-80
2023/06/21 03:34:13;;;;;;;52.05;39.05;;;20.40;99.90;;;;;;5093333;28;20185;-84
2023/06/21 03:36:39;;;;;;;55.53;40.70;;;20.40;99.90;;;;;;5099894;27;20205;-83
2023/06/21 03:39:06;;;;;;;50.40;39.22;;;20.40;99.90;;;;;;5077076;28;20659;-81
2023/06/21 03:41:32;;;;;;;51.50;38.30;;;20.40;99.90;;;;;;5076194;28;20271;-81
2023/06/21 03:43:59;;;;;;;54.08;39.13;;;20.30;99.90;;;;;;5093664;28;20188;-82
2023/06/21 03:46:25;;;;;;;55.33;39.92;;;20.30;99.90;;;;;;5100692;27;20255;-81
2023/06/21 03:48:53;;;;;;;53.22;39.58;;;20.30;99.90;;;;;;5093907;28;20182;-81
2023/06/21 03:51:21;;;;;;;53.33;38.53;;;20.30;99.90;;;;;;5095754;28;20211;-82
2023/06/21 03:53:48;;;;;;;52.40;38.90;;;20.20;99.90;;;;;;5113865;28;20212;-82
2023/06/21 03:56:14;;;;;;;55.85;39.78;;;20.20;99.90;;;;;;5105681;28;20205;-84
2023/06/21 03:58:41;;;;;;;58.20;40.05;;;20.30;99.90;;;;;;5107950;28;20229;-82
2023/06/21 04:01:07;;;;;;;50.40;39.50;;;20.30;99.90;;;;;;5108513;28;20182;-84
2023/06/21 04:03:33;;;;;;;52.50;39.17;;;20.30;99.90;;;;;;5111589;28;20187;-79
2023/06/21 04:05:59;;;;;;;56.72;38.88;;;20.30;99.90;;;;;;5096744;27;20177;-80
2023/06/21 04:08:25;;;;;;;55.83;38.33;;;20.30;99.90;;;;;;5076042;28;20192;-83
2023/06/21 04:10:52;;;;;;;51.33;38.65;;;20.30;99.90;;;;;;5106390;28;20181;-80
2023/06/21 04:13:17;;;;;;;53.38;39.17;;;20.30;99.90;;;;;;5112982;28;20177;-80
2023/06/21 04:15:45;;;;;;;55.40;39.42;;;20.30;99.90;;;;;;5099820;28;20264;-80
2023/06/21 04:18:11;;;;;;;51.20;39.35;;;20.30;99.90;;;;;;5085890;28;20320;-81
2023/06/21 04:20:36;;;;;;;53.17;39.05;;;20.30;99.90;;;;;;5084305;28;20193;-82
2023/06/21 04:23:04;;;;;;;51.80;39.00;;;20.30;99.90;;;;;;5077482;28;20498;-84
2023/06/21 04:25:29;;;;;;;55.03;38.90;;;20.30;99.90;;;;;;5096096;28;20177;-81
2023/06/21 04:27:55;;;;;;;55.80;39.22;;;20.40;99.90;;;;;;5104279;27;20629;-80
2023/06/21 04:30:21;;;;;;;55.42;40.10;;;20.40;99.90;;;;;;5089342;28;20273;-83
2023/06/21 04:32:47;;;;;;;55.55;40.13;;;20.40;99.90;;;;;;5095348;28;20288;-82
2023/06/21 04:35:14;;;;;;;54.55;38.03;;;20.40;99.90;;;;;;5112936;28;20655;-80
2023/06/21 04:37:44;;;;;;;56.15;39.03;;;20.40;99.90;;;;;;5084155;28;20219;-82
2023/06/21 04:40:20;;;;;;;58.22;38.78;;;20.40;99.90;;;;;;5100028;27;20193;-81
2023/06/21 04:42:54;;;;;;;51.78;38.67;;;20.30;99.90;;;;;;5092059;28;20212;-81
2023/06/21 04:45:20;;;;;;;53.13;38.97;;;20.30;99.90;;;;;;5093891;28;20185;-82
2023/06/21 04:47:46;;;;;;;56.47;38.53;;;20.40;99.90;;;;;;5099111;27;20536;-81
2023/06/21 04:50:12;;;;;;;56.30;39.67;;;20.30;99.90;;;;;;5101484;27;20208;-81
2023/06/21 04:52:39;;;;;;;55.05;39.28;;;20.30;99.90;;;;;;5093230;28;20182;-81
2023/06/21 04:55:05;;;;;;;54.10;37.47;;;20.30;99.90;;;;;;5092814;28;20240;-81
2023/06/21 04:57:31;;;;;;;51.30;35.90;;;20.30;99.90;;;;;;5093125;28;20255;-80
2023/06/21 04:59:57;;;;;;;52.05;37.22;;;20.30;99.90;;;;;;5100158;28;20193;-81
2023/06/21 05:02:24;;;;;;;53.78;35.30;;;20.30;99.90;;;;;;5104658;28;20639;-82
2023/06/21 05:04:50;;;;;;;53.30;34.60;;;20.40;99.90;;;;;;5113605;28;20178;-82
2023/06/21 05:07:16;;;;;;;48.05;31.60;;;20.30;99.90;;;;;;5102587;28;20715;-82
2023/06/21 05:09:42;;;;;;;46.17;31.83;;;20.30;99.90;;;;;;5098227;28;20579;-81
2023/06/21 05:12:12;;;;;;;47.90;31.95;;;20.30;99.90;;;;;;5101607;28;20575;-84
2023/06/21 05:14:38;;;;;;;52.28;32.47;;;20.30;99.90;;;;;;5106682;28;20222;-81
2023/06/21 05:17:04;;;;;;;45.00;29.63;;;20.40;99.90;;;;;;5077385;28;20213;-82
2023/06/21 05:19:30;;;;;;;45.40;29.02;;;20.40;99.90;;;;;;5070067;28;20221;-82
2023/06/21 05:21:55;;;;;;;44.30;29.25;;;20.40;99.90;;;;;;5090848;28;20213;-82
2023/06/21 05:24:21;;;;;;;49.22;28.48;;;20.40;99.90;;;;;;5092198;28;20186;-82
2023/06/21 05:26:47;;;;;;;39.78;26.92;;;20.40;99.90;;;;;;5094516;28;20206;-83
2023/06/21 05:29:13;;;;;;;40.78;25.80;;;20.40;99.90;;;;;;5103160;28;20185;-82
2023/06/21 05:31:43;;;;;;;41.60;25.77;;;20.40;99.90;;;;;;5111139;28;20178;-81
2023/06/21 05:34:09;;;;;;;41.80;25.50;;;20.40;99.90;;;;;;5111620;28;20277;-82
2023/06/21 05:36:35;;;;;;;36.22;24.25;;;20.40;99.90;;;;;;5108323;28;20201;-84
2023/06/21 05:39:01;;;;;;;45.17;24.67;;;20.40;99.90;;;;;;5100336;27;20272;-84
2023/06/21 05:41:27;;;;;;;42.08;23.13;;;20.40;99.90;;;;;;5074406;28;20236;-82
2023/06/21 05:43:52;;;;;;;37.92;21.77;;;20.40;99.90;;;;;;5096187;28;20189;-81
2023/06/21 05:46:18;;;;;;;37.88;22.00;;;20.50;99.90;;;;;;5110289;28;20200;-81
2023/06/21 05:48:44;;;;;;;35.28;21.27;;;20.50;99.90;;;;;;5098129;27;20661;-81
2023/06/21 05:51:10;;;;;;;31.08;21.02;;;20.50;99.90;;;;;;5104766;27;20185;-81
2023/06/21 05:53:36;;;;;;;34.97;21.73;;;20.60;99.90;;;;;;5098745;28;20459;-81
2023/06/21 05:56:02;;;;;;;34.65;21.25;;;20.60;99.90;;;;;;5074200;28;20190;-82
2023/06/21 05:58:27;;;;;;;32.13;20.40;;;20.60;99.90;;;;;;5060219;28;20205;-82
2023/06/21 06:00:54;;;;;;;30.77;19.45;;;20.60;99.90;;;;;;5104264;27;20193;-82
2023/06/21 06:03:20;;;;;;;33.72;19.33;;;20.60;99.90;;;;;;5109185;28;20273;-82
2023/06/21 06:05:46;;;;;;;30.88;18.77;;;20.70;99.90;;;;;;5109468;28;20181;-82
2023/06/21 06:08:12;;;;;;;31.95;18.58;;;20.70;99.90;;;;;;5110857;28;20250;-82
2023/06/21 06:10:38;;;;;;;30.23;19.13;;;20.70;99.90;;;;;;5096107;28;20188;-83
2023/06/21 06:13:04;;;;;;;30.35;19.17;;;20.70;99.90;;;;;;5097712;27;20212;-83
2023/06/21 06:15:30;;;;;;;28.88;18.17;;;20.70;99.90;;;;;;5088907;28;20230;-82
2023/06/21 06:17:55;;;;;;;29.30;18.80;;;20.80;99.90;;;;;;5106759;28;20689;-82
2023/06/21 06:20:21;;;;;;;30.77;18.33;;;20.80;99.90;;;;;;5101196;28;20193;-83
2023/06/21 06:22:47;;;;;;;28.27;18.30;;;20.80;99.90;;;;;;5092453;28;20779;-83
2023/06/21 06:25:13;;;;;;;27.65;17.88;;;20.80;99.90;;;;;;5099923;28;20292;-83
2023/06/21 06:27:39;;;;;;;29.77;18.30;;;20.80;99.90;;;;;;5112352;28;20625;-82
2023/06/21 06:30:05;;;;;;;27.27;19.23;;;20.90;99.90;;;;;;5112167;28;20185;-82
2023/06/21 06:32:31;;;;;;;27.08;18.67;;;20.90;99.90;;;;;;5101714;28;20205;-84
2023/06/21 06:34:57;;;;;;;29.50;18.92;;;20.90;99.90;;;;;;5099340;27;20205;-84
2023/06/21 06:37:24;;;;;;;29.25;18.13;;;21.00;99.90;;;;;;5104699;28;20316;-83
2023/06/21 06:39:54;;;;;;;30.33;19.17;;;21.00;99.90;;;;;;5089899;28;20178;-82
2023/06/21 06:42:20;;;;;;;28.00;18.38;;;21.00;99.90;;;;;;5055702;28;20281;-83
2023/06/21 06:44:50;;;;;;;26.20;18.40;;;21.00;99.90;;;;;;5063978;28;20278;-83
2023/06/21 06:47:16;;;;;;;28.60;17.83;;;21.10;99.90;;;;;;5071046;28;20179;-81
2023/06/21 06:49:42;;;;;;;29.90;17.35;;;21.10;99.90;;;;;;5035784;28;20198;-81
2023/06/21 06:52:10;;;;;;;29.55;17.20;;;21.20;99.90;;;;;;5053133;28;20240;-83
2023/06/21 06:54:35;;;;;;;24.10;16.95;;;21.20;99.90;;;;;;5063190;28;20665;-83
2023/06/21 06:57:01;;;;;;;23.67;16.55;;;21.30;99.90;;;;;;5051288;28;20297;-83
2023/06/21 06:59:27;;;;;;;25.30;16.63;;;21.30;99.90;;;;;;5051007;28;20179;-82
2023/06/21 07:01:52;;;;;;;23.00;15.63;;;21.30;99.90;;;;;;5061618;28;20193;-84
2023/06/21 07:04:19;;;;;;;20.52;14.90;;;21.40;99.90;;;;;;5070802;28;20178;-82
2023/06/21 07:06:45;;;;;;;25.88;14.98;;;21.50;99.90;;;;;;5069742;28;20186;-83
2023/06/21 07:09:11;;;;;;;23.83;15.52;;;21.60;99.90;;;;;;5053341;28;20649;-83
2023/06/21 07:11:36;;;;;;;21.30;13.20;;;21.60;99.90;;;;;;5064337;28;20661;-85
2023/06/21 07:14:02;;;;;;;24.15;14.10;;;21.70;99.90;;;;;;5065565;28;20256;-84
2023/06/21 07:16:33;;;;;;;17.17;12.82;;;21.80;99.90;;;;;;5070086;28;20183;-83
2023/06/21 07:18:59;;;;;;;21.60;13.40;;;21.80;99.90;;;;;;5064590;28;20656;-82
2023/06/21 07:21:27;;;;;;;21.27;13.45;;;21.90;99.90;;;;;;5069888;28;20183;-83
2023/06/21 07:23:53;;;;;;;17.45;12.45;;;21.90;99.90;;;;;;5069020;28;20180;-83
2023/06/21 07:26:19;;;;;;;19.67;12.18;;;22.00;99.90;;;;;;5070664;28;20248;-83
2023/06/21 07:28:45;;;;;;;19.85;12.38;;;22.10;99.90;;;;;;5065762;28;20611;-82
2023/06/21 07:31:11;;;;;;;16.80;10.82;;;22.10;99.90;;;;;;5069089;28;20188;-83
2023/06/21 07:33:37;;;;;;;15.15;10.23;;;22.20;99.90;;;;;;5070597;28;20662;-82
2023/06/21 07:36:03;;;;;;;16.95;10.15;;;22.20;99.90;;;;;;5068799;28;20283;-83
2023/06/21 07:38:29;;;;;;;15.30;9.88;;;22.20;99.90;;;;;;5067386;28;20264;-83
2023/06/21 07:40:55;;;;;;;17.77;10.25;;;22.30;99.90;;;;;;5052989;28;20230;-83
2023/06/21 07:43:20;;;;;;;18.05;9.40;;;22.30;99.90;;;;;;5090637;28;20231;-83
2023/06/21 07:45:46;;;;;;;17.55;9.63;;;22.40;99.90;;;;;;5083364;28;20608;-82
2023/06/21 07:48:12;;;;;;;15.02;9.20;;;22.40;99.90;;;;;;5090874;28;20184;-82
2023/06/21 07:50:38;;;;;;;16.85;9.68;;;22.50;99.90;;;;;;5084179;28;20468;-82
2023/06/21 07:53:04;;;;;;;13.55;8.45;;;22.50;99.90;;;;;;5101975;28;20666;-82
2023/06/21 07:55:30;;;;;;;13.23;8.30;;;22.60;99.90;;;;;;5104223;28;20316;-82
2023/06/21 07:57:56;;;;;;;17.58;10.50;;;22.70;99.90;;;;;;5094610;28;20220;-82
2023/06/21 08:00:22;;;;;;;15.38;8.45;;;22.80;99.90;;;;;;5103756;28;20208;-81
2023/06/21 08:02:52;;;;;;;14.73;9.40;;;22.90;99.90;;;;;;5093576;28;20182;-82
2023/06/21 08:05:21;;;;;;;10.48;8.82;;;22.90;99.90;;;;;;5091888;28;20256;-83
2023/06/21 08:07:46;;;;;;;13.77;9.40;;;23.10;99.90;;;;;;5100021;28;20185;-84
2023/06/21 08:10:12;;;;;;;14.82;8.80;;;23.10;99.90;;;;;;5115869;28;20176;-84
2023/06/21 08:12:38;;;;;;;16.08;8.45;;;23.20;99.90;;;;;;5114003;28;20190;-86
2023/06/21 08:15:05;;;;;;;15.15;8.45;;;23.30;99.90;;;;;;5102707;28;20637;-87
2023/06/21 08:17:31;;;;;;;11.00;8.20;;;23.50;99.90;;;;;;5104137;28;20214;-85
2023/06/21 08:19:58;;;;;;;11.50;8.27;;;23.80;99.90;;;;;;5100091;28;20189;-87
2023/06/21 08:22:25;;;;;;;14.77;8.82;;;23.90;99.90;;;;;;5092842;28;20177;-86
2023/06/21 08:24:50;;;;;;;15.80;8.85;;;24.00;99.90;;;;;;5114049;28;20709;-86
2023/06/21 08:27:17;;;;;;;13.45;8.45;;;24.20;99.90;;;;;;5099472;28;20188;-85
2023/06/21 08:29:44;;;;;;;12.68;8.18;;;24.30;99.90;;;;;;5099574;28;20544;-85
2023/06/21 08:32:10;;;;;;;11.95;7.47;;;24.40;99.90;;;;;;5091651;28;20718;-86
2023/06/21 08:34:35;;;;;;;12.18;7.20;;;24.60;99.90;;;;;;5098734;28;20169;-85
2023/06/21 08:37:01;;;;;;;14.15;7.47;;;24.80;99.90;;;;;;5108028;28;20560;-87
2023/06/21 08:39:27;;;;;;;14.40;7.10;;;24.90;99.90;;;;;;5079002;28;20247;-86
2023/06/21 08:41:53;;;;;;;11.32;7.25;;;25.10;99.90;;;;;;5082071;27;20228;-86
2023/06/21 08:44:19;;;;;;;14.45;7.68;;;25.20;99.90;;;;;;5094278;28;20272;-87
2023/06/21 08:46:48;;;;;;;11.82;7.00;;;25.30;99.90;;;;;;5094345;28;20189;-88
2023/06/21 08:49:17;;;;;;;12.88;7.28;;;25.40;99.90;;;;;;5093652;28;20214;-86
2023/06/21 08:51:46;;;;;;;12.55;7.85;;;25.50;99.90;;;;;;5094581;28;20182;-85
2023/06/21 08:54:13;;;;;;;12.38;8.45;;;25.60;99.90;;;;;;5106335;28;20196;-87
2023/06/21 08:57:03;;;;;;;11.68;8.18;;;25.70;99.90;;;;;;5099031;28;20664;-87
2023/06/21 08:59:56;;;;;;;18.45;11.52;;;25.80;99.90;;;;;;5104956;28;20185;-85
2023/06/21 09:02:35;;;;;;;12.95;6.90;;;25.90;99.90;;;;;;5104784;28;20181;-87
2023/06/21 09:05:06;;;;;;;12.88;8.80;;;26.00;99.90;;;;;;5094911;28;20675;-87
2023/06/21 09:07:34;;;;;;;17.08;10.13;;;26.20;99.90;;;;;;5095310;28;20170;-86
2023/06/21 09:10:02;;;;;;;12.80;8.20;;;26.20;99.90;;;;;;5095940;28;20194;-86
2023/06/21 09:12:30;;;;;;;14.65;7.32;;;26.40;99.90;;;;;;5099338;27;20222;-85
2023/06/21 09:14:56;;;;;;;11.27;7.07;;;26.50;99.90;;;;;;5105753;27;20638;-84
2023/06/21 09:17:24;;;;;;;14.57;7.60;;;26.60;99.90;;;;;;5108621;28;20220;-84
2023/06/21 09:19:52;;;;;;;12.15;7.20;;;26.60;99.90;;;;;;5096169;28;20664;-85
2023/06/21 09:22:18;;;;;;;11.45;7.30;;;26.70;99.90;;;;;;5112355;28;20369;-87
2023/06/21 09:24:44;;;;;;;10.93;6.85;;;26.80;99.90;;;;;;5095380;28;20193;-86
2023/06/21 09:27:11;;;;;;;7.35;5.78;;;26.90;99.90;;;;;;5077122;28;20205;-86
2023/06/21 09:29:40;;;;;;;9.55;6.63;;;27.00;99.90;;;;;;5079768;28;20177;-86
2023/06/21 09:32:06;;;;;;;11.18;6.00;;;27.20;99.90;;;;;;5096390;28;20181;-86
2023/06/21 09:34:32;;;;;;;9.30;5.75;;;27.20;99.90;;;;;;5094475;27;20189;-86
2023/06/21 09:36:58;;;;;;;8.05;5.47;;;27.30;99.90;;;;;;5112172;28;20208;-87
2023/06/21 09:39:25;;;;;;;12.65;4.78;;;27.20;99.90;;;;;;5069560;28;20253;-86
2023/06/21 09:41:51;;;;;;;8.15;5.85;;;27.00;99.80;;;;;;5059010;28;20586;-85
2023/06/21 09:44:20;;;;;;;13.88;6.40;;;26.90;99.70;;;;;;5094760;28;20185;-86
2023/06/21 09:46:47;;;;;;;9.73;6.53;;;26.90;99.90;;;;;;5091632;28;20196;-86
2023/06/21 09:49:15;;;;;;;10.30;6.05;;;26.80;99.90;;;;;;5091825;28;20242;-84
2023/06/21 09:51:43;;;;;;;7.05;5.47;;;26.70;99.90;;;;;;5075041;28;20212;-86
2023/06/21 09:54:09;;;;;;;9.55;6.28;;;26.70;99.90;;;;;;5095134;28;20177;-86
2023/06/21 09:56:37;;;;;;;10.80;6.40;;;26.70;99.90;;;;;;5091699;28;20193;-85
2023/06/21 09:59:23;;;;;;;10.38;7.43;;;26.70;99.90;;;;;;5074426;28;20265;-85
2023/06/21 10:01:50;;;;;;;9.38;5.80;;;26.60;99.90;;;;;;5081852;28;20564;-88
2023/06/21 10:04:16;;;;;;;11.52;5.95;;;26.60;99.90;;;;;;5091463;28;20181;-87
2023/06/21 10:06:55;;;;;;;20.88;7.22;;;26.60;99.60;;;;;;5091861;28;20464;-87
2023/06/21 10:09:21;;;;;;;11.00;5.82;;;26.60;99.30;;;;;;5093126;28;20177;-87
2023/06/21 10:11:49;;;;;;;9.25;5.32;;;26.70;99.20;;;;;;5090839;28;20284;-86
2023/06/21 10:14:19;;;;;;;7.55;5.20;;;26.70;99.30;;;;;;5093297;28;20180;-87
2023/06/21 10:16:48;;;;;;;9.93;5.55;;;26.80;99.30;;;;;;5101731;27;20220;-88
2023/06/21 10:19:14;;;;;;;7.25;4.53;;;26.90;98.90;;;;;;5112831;28;20196;-86
2023/06/21 10:21:40;;;;;;;8.13;4.65;;;26.90;98.50;;;;;;5092808;28;20186;-86
2023/06/21 10:24:08;;;;;;;6.53;4.72;;;27.00;98.20;;;;;;5092755;28;20178;-86
2023/06/21 10:26:35;;;;;;;9.18;5.35;;;27.10;98.00;;;;;;5090416;28;20526;-86
2023/06/21 10:29:02;;;;;;;8.13;6.00;;;27.20;97.90;;;;;;5111582;28;20595;-86
2023/06/21 10:31:31;;;;;;;15.00;4.90;;;27.20;97.80;;;;;;5114541;28;20176;-87
2023/06/21 10:33:57;;;;;;;9.05;5.88;;;27.30;97.60;;;;;;5116851;27;20181;-87
2023/06/21 10:36:31;;;;;;;10.10;5.68;;;27.30;97.30;;;;;;5092241;28;20181;-86
2023/06/21 10:39:04;;;;;;;7.07;4.88;;;27.20;97.30;;;;;;5097834;28;20614;-87
2023/06/21 10:41:31;;;;;;;9.05;4.45;;;27.30;97.10;;;;;;5093697;28;20224;-86
2023/06/21 10:43:57;;;;;;;7.55;5.28;;;27.30;97.00;;;;;;5091995;28;20625;-85
2023/06/21 10:46:23;;;;;;;7.72;4.95;;;27.30;96.60;;;;;;5078075;28;20185;-87
2023/06/21 10:48:51;;;;;;;6.60;4.30;;;27.30;96.40;;;;;;5112701;28;20185;-87
2023/06/21 10:51:18;;;;;;;7.72;4.53;;;27.30;96.30;;;;;;5113717;28;20183;-87
2023/06/21 10:53:45;;;;;;;9.32;5.50;;;27.30;96.30;;;;;;5096780;28;20264;-87
2023/06/21 10:56:16;;;;;;;7.07;4.47;;;27.40;96.20;;;;;;5093870;28;20170;-88
2023/06/21 10:58:42;;;;;;;6.20;4.25;;;27.40;96.10;;;;;;5103994;28;20289;-87
2023/06/21 11:01:09;;;;;;;7.68;4.53;;;27.40;96.10;;;;;;5079440;28;20182;-86
2023/06/21 11:03:36;;;;;;;8.00;3.80;;;27.50;96.30;;;;;;5121968;28;20177;-87
2023/06/21 11:06:24;;;;;;;6.80;4.70;;;27.60;96.20;;;;;;5113244;28;20181;-87
2023/06/21 11:08:50;;;;;;;6.80;4.10;;;27.70;95.90;;;;;;5104646;28;20184;-86
2023/06/21 11:11:37;;;;;;;7.45;3.97;;;27.80;95.60;;;;;;5106884;28;20176;-87
2023/06/21 11:14:06;;;;;;;7.25;4.80;;;27.90;95.00;;;;;;5131754;28;20172;-87
2023/06/21 11:16:35;;;;;;;5.10;4.03;;;27.90;94.60;;;;;;5113871;28;20180;-87
2023/06/21 11:19:08;;;;;;;9.63;4.80;;;28.00;94.40;;;;;;5110548;28;20253;-87
2023/06/21 11:21:41;;;;;;;11.15;5.32;;;28.00;94.20;;;;;;5093567;28;20181;-87
2023/06/21 11:24:09;;;;;;;9.50;4.80;;;28.10;94.00;;;;;;5094320;28;20516;-87
2023/06/21 11:26:57;;;;;;;5.22;3.85;;;28.00;93.50;;;;;;5096466;28;20633;-85
2023/06/21 11:29:38;;;;;;;6.97;3.80;;;28.00;93.20;;;;;;5101560;27;20181;-86
2023/06/21 11:32:08;;;;;;;9.05;4.00;;;27.90;93.20;;;;;;5093094;28;20184;-87
2023/06/21 11:34:33;;;;;;;7.88;6.05;;;27.80;93.00;;;;;;5089689;28;20177;-90
2023/06/21 11:37:40;;;;;;;7.57;4.43;;;27.80;92.90;;;;;;5116164;28;20212;-87
2023/06/21 11:40:08;;;;;;;7.25;4.20;;;27.90;93.00;;;;;;5088171;28;20285;-88
2023/06/21 11:42:47;;;;;;;5.65;4.03;;;27.90;92.90;;;;;;5105347;28;20181;-88
2023/06/21 11:45:33;;;;;;;6.47;4.30;;;28.00;92.70;;;;;;5114260;28;20176;-88
2023/06/21 11:48:10;;;;;;;7.30;4.50;;;28.00;92.70;;;;;;5115028;28;20632;-86
2023/06/21 11:50:48;;;;;;;5.15;3.75;;;27.90;92.80;;;;;;5109831;28;20176;-88
2023/06/21 11:53:18;;;;;;;7.20;3.90;;;28.00;92.90;;;;;;5099292;28;20180;-86
2023/06/21 11:55:46;;;;;;;8.75;3.80;;;28.00;92.90;;;;;;5099418;28;20196;-87
2023/06/21 11:58:11;;;;;;;6.35;4.20;;;28.00;92.60;;;;;;5114415;28;20223;-86
2023/06/21 12:00:37;;;;;;;7.68;4.85;;;28.00;92.50;;;;;;5108496;28;20288;-87
2023/06/21 12:03:05;;;;;;;7.70;4.93;;;27.90;92.40;;;;;;5066844;28;20461;-89
2023/06/21 12:05:46;;;;;;;7.20;4.50;;;27.90;92.50;;;;;;5088155;28;20221;-87
2023/06/21 12:08:12;;;;;;;7.57;4.53;;;27.80;92.30;;;;;;5080475;28;20185;-87
2023/06/21 12:10:37;;;;;;;7.18;4.07;;;27.80;92.40;;;;;;5098017;28;20300;-86
2023/06/21 12:13:05;;;;;;;6.22;4.55;;;27.70;92.50;;;;;;5096603;28;20219;-87
2023/06/21 12:15:31;;;;;;;6.22;4.43;;;27.70;92.50;;;;;;5114618;28;20185;-87
2023/06/21 12:17:57;;;;;;;8.48;4.65;;;27.60;92.40;;;;;;5098100;28;20304;-87
2023/06/21 12:20:23;;;;;;;7.53;4.90;;;27.60;92.90;;;;;;5095570;28;20182;-88
2023/06/21 12:22:48;;;;;;;11.85;6.63;;;27.60;93.10;;;;;;5097243;28;20177;-89
2023/06/21 12:25:14;;;;;;;8.70;6.55;;;27.60;93.50;;;;;;5078576;28;20237;-89
2023/06/21 12:27:56;;;;;;;8.77;6.30;;;27.60;93.70;;;;;;5102722;27;20495;-87
2023/06/21 12:30:25;;;;;;;11.00;7.55;;;27.70;93.60;;;;;;5124382;28;20196;-92
2023/06/21 12:32:51;;;;;;;6.63;5.53;;;27.70;93.70;;;;;;5128490;28;20244;-91
2023/06/21 12:35:17;;;;;;;8.10;6.30;;;27.70;93.50;;;;;;5108717;28;20194;-88
2023/06/21 12:37:45;;;;;;;7.93;5.57;;;27.80;93.00;;;;;;5102251;28;20232;-88